Time;durP1;ratioP1;P1;durP2;ratioP2;P2;SDS_P1;SDS_P2;PMS_P1;PMS_P2;Temp;Humidity;BMP_temperature;BMP_pressure;BME280_temperature;BME280_humidity;BME280_pressure;Samples;Min_cycle;Max_cycle;Signal;HPM_P1;HPM_P2
2023/01/03 00:01:15;;;;;;;8.25;2.45;;;5.20;99.90;;;;;;5027835;28;20013;-69
2023/01/03 00:03:41;;;;;;;7.78;2.80;;;5.20;99.90;;;;;;5030655;28;20418;-71
2023/01/03 00:06:22;;;;;;;8.75;2.70;;;5.10;99.90;;;;;;5024202;28;20049;-71
2023/01/03 00:08:48;;;;;;;8.73;3.00;;;5.10;99.90;;;;;;5020005;28;20088;-71
2023/01/03 00:12:22;;;;;;;12.43;2.65;;;5.10;99.90;;;;;;5023752;28;20021;-70
2023/01/03 00:14:05;;;;;;;12.38;3.03;;;5.10;99.90;;;;;;5028772;28;20033;-71
2023/01/03 00:16:30;;;;;;;7.30;2.47;;;5.10;99.90;;;;;;5019072;28;20490;-70
2023/01/03 00:18:56;;;;;;;9.57;2.45;;;5.00;99.90;;;;;;5031278;28;20467;-72
2023/01/03 00:21:21;;;;;;;10.00;2.00;;;5.00;99.90;;;;;;5030841;28;20044;-71
2023/01/03 00:23:47;;;;;;;8.88;2.58;;;5.00;99.90;;;;;;5031350;28;20390;-71
2023/01/03 00:26:17;;;;;;;4.88;2.53;;;5.10;99.90;;;;;;5029956;28;20076;-69
2023/01/03 00:28:43;;;;;;;10.20;2.78;;;5.10;99.90;;;;;;5030713;28;20116;-70
2023/01/03 00:31:11;;;;;;;9.82;2.28;;;5.10;99.90;;;;;;5029044;28;20473;-70
2023/01/03 00:33:38;;;;;;;10.15;2.20;;;5.10;99.90;;;;;;5030328;28;20033;-71
2023/01/03 00:36:07;;;;;;;7.65;2.83;;;5.00;99.90;;;;;;5027505;28;20030;-70
2023/01/03 00:38:35;;;;;;;6.22;2.50;;;5.00;99.90;;;;;;5026231;28;20116;-69
2023/01/03 00:41:09;;;;;;;8.25;2.78;;;5.00;99.90;;;;;;5029138;28;20026;-71
2023/01/03 00:43:35;;;;;;;6.25;2.33;;;4.90;99.90;;;;;;5027535;28;20028;-70
2023/01/03 00:46:01;;;;;;;7.78;3.15;;;4.90;99.90;;;;;;5028045;28;20118;-70
2023/01/03 00:48:27;;;;;;;8.27;2.00;;;4.90;99.90;;;;;;5023650;28;20562;-69
2023/01/03 00:50:53;;;;;;;5.35;2.08;;;5.00;99.90;;;;;;5025235;28;20045;-69
2023/01/03 00:53:19;;;;;;;9.88;2.35;;;5.00;99.90;;;;;;5023804;28;20033;-69
2023/01/03 00:55:45;;;;;;;6.07;1.75;;;5.00;99.90;;;;;;5023897;28;20084;-70
2023/01/03 00:58:11;;;;;;;4.60;2.00;;;5.00;99.90;;;;;;5017668;28;20029;-70
2023/01/03 01:00:37;;;;;;;4.07;2.08;;;5.10;99.90;;;;;;5028705;28;20029;-70
2023/01/03 01:03:03;;;;;;;7.10;2.20;;;5.10;99.90;;;;;;5020944;28;20036;-70
2023/01/03 01:05:29;;;;;;;9.18;2.10;;;5.10;99.90;;;;;;5023481;28;20101;-70
2023/01/03 01:07:55;;;;;;;6.55;2.78;;;5.10;99.90;;;;;;5027981;28;20120;-70
2023/01/03 01:10:22;;;;;;;7.40;2.60;;;5.10;99.90;;;;;;5020837;28;20546;-70
2023/01/03 01:12:47;;;;;;;6.80;2.10;;;5.20;99.90;;;;;;5018508;28;20141;-70
2023/01/03 01:15:14;;;;;;;8.00;2.58;;;5.20;99.90;;;;;;5031383;28;20447;-70
2023/01/03 01:17:40;;;;;;;8.85;2.47;;;5.20;99.90;;;;;;5063041;28;20025;-70
2023/01/03 01:20:06;;;;;;;6.25;2.20;;;5.20;99.90;;;;;;5022557;28;20510;-71
2023/01/03 01:22:34;;;;;;;4.78;2.25;;;5.20;99.90;;;;;;5032749;28;20029;-70
2023/01/03 01:25:00;;;;;;;7.07;2.55;;;5.20;99.90;;;;;;5027589;28;20087;-70
2023/01/03 01:27:26;;;;;;;7.03;2.50;;;5.30;99.90;;;;;;5029127;28;20083;-69
2023/01/03 01:29:54;;;;;;;10.02;2.53;;;5.30;99.90;;;;;;5025971;28;20026;-71
2023/01/03 01:32:19;;;;;;;5.88;2.20;;;5.30;99.90;;;;;;5027591;28;20076;-69
2023/01/03 01:34:45;;;;;;;7.63;2.10;;;5.30;99.90;;;;;;5049378;28;20033;-70
2023/01/03 01:37:10;;;;;;;3.03;1.67;;;5.30;99.90;;;;;;5025451;28;20547;-69
2023/01/03 01:39:36;;;;;;;6.70;1.98;;;5.30;99.90;;;;;;5032115;28;20021;-71
2023/01/03 01:45:00;;;;;;;5.72;1.92;;;5.30;99.90;;;;;;5031906;28;20033;-70
2023/01/03 01:47:44;;;;;;;7.00;2.33;;;5.30;99.90;;;;;;5032663;28;20128;-70
2023/01/03 01:50:31;;;;;;;8.52;2.63;;;5.30;99.90;;;;;;5029334;28;20045;-69
2023/01/03 01:53:01;;;;;;;10.05;2.63;;;5.30;99.90;;;;;;5033594;28;20072;-71
2023/01/03 01:55:35;;;;;;;8.25;2.83;;;5.30;99.90;;;;;;5029860;28;20065;-69
2023/01/03 01:58:01;;;;;;;9.40;2.58;;;5.30;99.90;;;;;;5026042;28;20025;-70
2023/01/03 02:00:28;;;;;;;10.02;2.70;;;5.30;99.90;;;;;;5033281;28;20095;-71
2023/01/03 02:02:54;;;;;;;7.85;2.47;;;5.20;99.90;;;;;;5023395;28;20044;-69
2023/01/03 02:05:22;;;;;;;4.45;1.88;;;5.20;99.90;;;;;;5026151;28;20030;-70
2023/01/03 02:07:50;;;;;;;6.00;2.20;;;5.20;99.90;;;;;;5054065;28;20119;-70
2023/01/03 02:10:19;;;;;;;12.02;2.10;;;5.10;99.90;;;;;;5033323;28;20075;-70
2023/01/03 02:13:04;;;;;;;7.25;1.92;;;5.10;99.90;;;;;;5020641;28;20033;-69
2023/01/03 02:15:32;;;;;;;9.00;1.90;;;5.10;99.90;;;;;;5030637;28;20068;-70
2023/01/03 02:18:18;;;;;;;3.65;1.77;;;5.10;99.90;;;;;;5029535;28;20035;-69
2023/01/03 02:21:24;;;;;;;8.27;3.58;;;5.10;99.90;;;;;;5030130;28;20080;-70
2023/01/03 02:24:38;;;;;;;5.15;2.20;;;5.00;99.90;;;;;;5023827;28;20041;-69
2023/01/03 02:27:41;;;;;;;5.78;1.90;;;5.00;99.90;;;;;;5023335;28;20045;-70
2023/01/03 02:30:16;;;;;;;4.93;1.90;;;5.00;99.90;;;;;;5031083;28;20061;-71
2023/01/03 02:32:56;;;;;;;6.80;2.20;;;4.90;99.90;;;;;;5031978;28;20076;-70
2023/01/03 02:35:37;;;;;;;14.25;4.15;;;4.90;99.90;;;;;;5033431;28;20473;-69
2023/01/03 02:38:09;;;;;;;8.43;2.47;;;4.90;99.90;;;;;;5031909;28;20485;-71
2023/01/03 02:41:15;;;;;;;7.05;2.30;;;4.80;99.90;;;;;;5030840;28;20026;-70
2023/01/03 02:43:59;;;;;;;7.38;2.80;;;4.80;99.90;;;;;;5010348;28;20042;-70
2023/01/03 02:46:46;;;;;;;6.35;2.40;;;4.80;99.90;;;;;;5032266;28;20068;-71
2023/01/03 02:49:29;;;;;;;11.32;3.20;;;4.80;99.90;;;;;;5032932;28;20038;-70
2023/01/03 02:51:59;;;;;;;6.55;2.72;;;4.80;99.90;;;;;;5033682;28;20055;-71
2023/01/03 02:54:32;;;;;;;7.78;3.03;;;4.70;99.90;;;;;;5032958;28;20040;-71
2023/01/03 02:57:03;;;;;;;8.65;2.90;;;4.70;99.90;;;;;;5032815;28;20169;-70
2023/01/03 02:59:45;;;;;;;9.50;3.08;;;4.70;99.90;;;;;;5033033;28;20022;-70
2023/01/03 03:02:13;;;;;;;9.82;3.35;;;4.70;99.90;;;;;;5030811;28;20040;-71
2023/01/03 03:04:41;;;;;;;12.60;3.67;;;4.70;99.90;;;;;;5031460;28;20145;-71
2023/01/03 03:07:27;;;;;;;10.20;3.50;;;4.70;99.90;;;;;;5032659;28;20071;-69
2023/01/03 03:16:13;;;;;;;11.30;3.30;;;4.70;99.90;;;;;;5028280;28;20562;-69
2023/01/03 03:18:55;;;;;;;8.52;3.75;;;4.70;99.90;;;;;;5032589;28;20029;-70
2023/01/03 03:28:33;;;;;;;11.32;4.45;;;4.60;99.90;;;;;;5028991;28;20142;-71
2023/01/03 03:29:47;;;;;;;12.68;4.72;;;4.60;99.90;;;;;;5031938;28;20090;-71
2023/01/03 03:32:13;;;;;;;13.85;4.30;;;4.60;99.90;;;;;;5031996;28;20036;-70
2023/01/03 03:34:43;;;;;;;12.63;4.68;;;4.60;99.90;;;;;;5032811;28;20033;-70
2023/01/03 03:37:18;;;;;;;13.60;4.70;;;4.50;99.90;;;;;;5032545;28;20037;-71
2023/01/03 03:45:50;;;;;;;16.70;5.78;;;4.50;99.90;;;;;;5032516;28;20458;-70
2023/01/03 03:48:24;;;;;;;15.15;6.60;;;4.50;99.90;;;;;;5032433;28;20061;-70
2023/01/03 03:50:56;;;;;;;12.50;6.05;;;4.40;99.90;;;;;;5032026;28;20128;-71
2023/01/03 03:53:27;;;;;;;12.02;5.78;;;4.40;99.90;;;;;;5031185;28;20179;-70
2023/01/03 03:55:57;;;;;;;17.38;7.00;;;4.40;99.90;;;;;;5032146;28;20124;-70
2023/01/03 03:58:28;;;;;;;22.75;8.05;;;4.40;99.90;;;;;;5032048;28;20056;-70
2023/01/03 04:00:54;;;;;;;19.55;9.25;;;4.40;99.90;;;;;;5031648;28;20025;-70
2023/01/03 04:03:21;;;;;;;18.08;8.43;;;4.40;99.90;;;;;;5031482;28;20129;-70
2023/01/03 04:05:57;;;;;;;21.30;8.38;;;4.40;99.90;;;;;;5031861;28;20032;-69
2023/01/03 04:08:23;;;;;;;18.30;8.52;;;4.40;99.90;;;;;;5032456;28;20387;-69
2023/01/03 04:10:48;;;;;;;21.15;9.65;;;4.40;99.90;;;;;;5031809;28;20083;-71
2023/01/03 04:13:14;;;;;;;19.92;8.40;;;4.40;99.90;;;;;;5032003;28;20025;-69
2023/01/03 04:15:40;;;;;;;18.75;8.30;;;4.40;99.90;;;;;;5032261;28;20037;-69
2023/01/03 04:18:06;;;;;;;21.38;9.38;;;4.40;99.90;;;;;;5031482;28;20021;-70
2023/01/03 04:20:31;;;;;;;24.70;10.23;;;4.40;99.90;;;;;;5032019;28;20029;-70
2023/01/03 04:22:57;;;;;;;23.70;9.10;;;4.40;99.90;;;;;;5030659;28;20025;-69
2023/01/03 04:25:23;;;;;;;19.80;9.02;;;4.40;99.90;;;;;;5032002;28;20104;-70
2023/01/03 04:27:48;;;;;;;22.55;9.77;;;4.40;99.90;;;;;;5031551;28;20414;-70
2023/01/03 04:30:14;;;;;;;24.02;9.05;;;4.40;99.90;;;;;;5031831;28;20075;-69
2023/01/03 04:32:40;;;;;;;20.08;8.88;;;4.40;99.90;;;;;;5031282;28;20120;-70
2023/01/03 04:35:06;;;;;;;21.48;9.32;;;4.40;99.90;;;;;;5031924;28;20101;-70
2023/01/03 04:37:31;;;;;;;21.25;9.63;;;4.40;99.90;;;;;;5034051;28;20025;-71
2023/01/03 04:39:57;;;;;;;24.13;10.32;;;4.40;99.90;;;;;;5032731;28;20482;-70
2023/01/03 04:45:07;;;;;;;26.20;10.90;;;4.40;99.90;;;;;;5031392;28;20544;-71
2023/01/03 04:47:33;;;;;;;22.15;10.60;;;4.50;99.90;;;;;;5031440;28;20082;-69
2023/01/03 04:49:58;;;;;;;23.83;10.43;;;4.40;99.90;;;;;;5034833;28;20152;-70
2023/01/03 04:52:24;;;;;;;21.60;9.57;;;4.40;99.90;;;;;;5033502;28;20037;-70
2023/01/03 04:54:49;;;;;;;23.30;10.02;;;4.40;99.90;;;;;;5035734;28;20034;-69
2023/01/03 04:57:15;;;;;;;25.35;10.57;;;4.30;99.90;;;;;;5035416;28;20044;-69
2023/01/03 04:59:40;;;;;;;24.45;9.95;;;4.30;99.90;;;;;;5035403;28;20120;-69
2023/01/03 05:02:06;;;;;;;23.50;11.18;;;4.30;99.90;;;;;;5035263;28;20021;-69
2023/01/03 05:04:31;;;;;;;26.90;12.07;;;4.20;99.90;;;;;;5035482;28;20079;-70
2023/01/03 05:06:57;;;;;;;31.77;12.60;;;4.30;99.90;;;;;;5035196;28;20063;-70
2023/01/03 05:09:25;;;;;;;26.77;12.00;;;4.20;99.90;;;;;;5035802;28;20025;-69
2023/01/03 05:11:51;;;;;;;28.63;12.15;;;4.20;99.90;;;;;;5035317;28;20033;-70
2023/01/03 05:14:16;;;;;;;31.60;12.05;;;4.30;99.90;;;;;;5035337;28;20473;-70
2023/01/03 05:16:42;;;;;;;44.00;13.82;;;4.20;99.90;;;;;;5035013;28;20459;-70
2023/01/03 05:19:07;;;;;;;31.55;14.05;;;4.20;99.90;;;;;;5034830;28;20044;-70
2023/01/03 05:27:04;;;;;;;30.10;13.70;;;4.20;99.90;;;;;;5034096;28;20049;-70
2023/01/03 05:29:31;;;;;;;35.38;15.13;;;4.20;99.90;;;;;;5034960;28;20120;-70
2023/01/03 05:31:57;;;;;;;30.00;13.57;;;4.20;99.90;;;;;;5034415;28;20079;-69
2023/01/03 05:34:22;;;;;;;34.95;16.52;;;4.20;99.90;;;;;;5034809;28;20467;-69
2023/01/03 05:36:48;;;;;;;40.33;17.20;;;4.20;99.90;;;;;;5035361;28;20525;-70
2023/01/03 05:39:13;;;;;;;34.15;15.23;;;4.20;99.90;;;;;;5035035;28;20033;-69
2023/01/03 05:44:24;;;;;;;44.13;20.63;;;4.20;99.90;;;;;;5033841;28;20459;-68
2023/01/03 05:46:49;;;;;;;42.78;19.52;;;4.20;99.90;;;;;;5034465;28;20116;-70
2023/01/03 05:49:15;;;;;;;45.55;20.23;;;4.20;99.90;;;;;;5034431;28;20141;-70
2023/01/03 05:51:40;;;;;;;41.90;18.55;;;4.20;99.90;;;;;;5033879;28;20079;-69
2023/01/03 05:54:06;;;;;;;53.50;21.50;;;4.20;99.90;;;;;;5034970;28;20021;-70
2023/01/03 05:56:32;;;;;;;45.38;20.05;;;4.30;99.90;;;;;;5034898;28;20384;-70
2023/01/03 05:58:58;;;;;;;42.55;20.85;;;4.30;99.90;;;;;;5034137;28;20196;-69
2023/01/03 06:01:25;;;;;;;46.38;19.65;;;4.30;99.90;;;;;;5034366;28;20467;-69
2023/01/03 06:03:51;;;;;;;83.07;24.83;;;4.40;99.90;;;;;;5034143;28;20025;-70
2023/01/03 06:06:17;;;;;;;48.00;19.58;;;4.40;99.90;;;;;;5034719;28;20120;-71
2023/01/03 06:08:43;;;;;;;43.25;19.52;;;4.40;99.90;;;;;;5034513;28;20462;-69
2023/01/03 06:11:11;;;;;;;47.63;20.98;;;4.50;99.90;;;;;;5034295;28;20025;-70
2023/01/03 06:13:38;;;;;;;46.70;21.65;;;4.50;99.90;;;;;;5033755;28;20052;-71
2023/01/03 06:18:56;;;;;;;49.03;21.50;;;4.60;99.90;;;;;;5034522;28;20425;-70
2023/01/03 06:21:21;;;;;;;46.63;20.35;;;4.60;99.90;;;;;;5033792;28;20037;-70
2023/01/03 06:23:47;;;;;;;46.20;22.48;;;4.70;99.90;;;;;;5031575;28;20112;-69
2023/01/03 06:26:18;;;;;;;44.80;21.92;;;4.70;99.90;;;;;;5033820;28;20547;-70
2023/01/03 06:28:43;;;;;;;50.58;24.25;;;4.80;99.90;;;;;;5032852;28;20032;-71
2023/01/03 06:31:10;;;;;;;55.63;21.42;;;4.80;99.90;;;;;;5031976;28;20112;-70
2023/01/03 06:33:35;;;;;;;204.70;33.97;;;4.80;99.90;;;;;;5031853;28;20065;-71
2023/01/03 06:36:10;;;;;;;46.33;20.33;;;4.80;99.90;;;;;;5032604;28;20025;-70
2023/01/03 06:38:36;;;;;;;43.15;20.13;;;4.80;99.90;;;;;;5032635;28;20029;-69
2023/01/03 06:41:02;;;;;;;42.33;21.15;;;4.90;99.90;;;;;;5032435;28;20095;-70
2023/01/03 06:43:28;;;;;;;92.72;23.98;;;4.90;99.90;;;;;;5032724;28;20030;-71
2023/01/03 06:54:20;;;;;;;49.90;22.55;;;4.90;99.90;;;;;;5029464;28;20497;-71
2023/01/03 06:56:46;;;;;;;45.28;22.95;;;5.00;99.90;;;;;;5032367;28;20028;-70
2023/01/03 06:59:11;;;;;;;46.60;24.05;;;5.00;99.90;;;;;;5032332;28;20378;-71
2023/01/03 07:01:38;;;;;;;113.05;29.88;;;5.00;99.90;;;;;;5031716;28;20037;-70
2023/01/03 07:04:03;;;;;;;93.93;26.30;;;5.00;99.90;;;;;;5032359;28;20037;-69
2023/01/03 07:06:29;;;;;;;50.72;23.75;;;5.10;99.90;;;;;;5032417;28;20045;-71
2023/01/03 07:08:55;;;;;;;48.47;23.77;;;5.10;99.90;;;;;;5032948;28;20038;-70
2023/01/03 07:11:22;;;;;;;48.92;24.13;;;5.20;99.90;;;;;;5031448;28;20037;-70
2023/01/03 07:13:57;;;;;;;59.78;27.27;;;5.30;99.90;;;;;;5032357;28;20053;-71
2023/01/03 07:16:29;;;;;;;52.33;25.35;;;5.40;99.90;;;;;;5033313;28;20116;-70
2023/01/03 07:18:56;;;;;;;47.67;25.73;;;5.40;99.90;;;;;;5033323;28;20037;-69
2023/01/03 07:21:23;;;;;;;47.35;25.13;;;5.50;99.90;;;;;;5032399;28;20470;-69
2023/01/03 07:23:51;;;;;;;49.83;25.55;;;5.60;99.90;;;;;;5031624;28;20049;-69
2023/01/03 07:26:16;;;;;;;48.78;26.48;;;5.60;99.90;;;;;;5033021;28;20033;-70
2023/01/03 07:28:42;;;;;;;48.17;27.05;;;5.60;99.90;;;;;;5032845;28;20044;-70
2023/01/03 07:31:07;;;;;;;49.70;27.08;;;5.60;99.90;;;;;;5032761;28;20034;-69
2023/01/03 07:33:33;;;;;;;44.30;24.42;;;5.70;99.90;;;;;;5032915;28;20079;-70
2023/01/03 07:36:00;;;;;;;47.95;26.50;;;5.70;99.90;;;;;;5032029;28;20478;-70
2023/01/03 07:38:26;;;;;;;46.85;25.63;;;5.70;99.90;;;;;;5031607;28;20067;-71
2023/01/03 07:40:57;;;;;;;44.20;25.90;;;5.70;99.90;;;;;;5038104;28;20042;-70
2023/01/03 07:43:38;;;;;;;48.10;25.20;;;5.80;99.90;;;;;;5031191;28;20088;-70
2023/01/03 07:46:13;;;;;;;42.38;24.73;;;5.80;99.90;;;;;;5039450;28;20022;-70
2023/01/03 07:48:39;;;;;;;45.47;28.55;;;5.80;99.90;;;;;;5032214;28;20046;-69
2023/01/03 07:51:07;;;;;;;45.28;25.15;;;5.80;99.90;;;;;;5032025;28;20132;-70
2023/01/03 07:53:34;;;;;;;44.10;24.35;;;5.80;99.90;;;;;;5032116;28;20112;-70
2023/01/03 07:56:08;;;;;;;39.00;21.70;;;5.70;99.90;;;;;;5032734;28;20052;-70
2023/01/03 07:58:35;;;;;;;40.67;20.23;;;5.70;99.90;;;;;;5030014;28;20080;-70
2023/01/03 08:01:09;;;;;;;41.88;22.08;;;5.70;99.90;;;;;;5031256;28;20028;-70
2023/01/03 08:03:35;;;;;;;37.22;20.15;;;5.60;99.90;;;;;;5019630;28;20037;-69
2023/01/03 08:06:03;;;;;;;38.25;20.00;;;5.60;99.90;;;;;;5031645;28;20029;-68
2023/01/03 08:08:28;;;;;;;39.30;20.55;;;5.60;99.90;;;;;;5031748;28;20128;-70
2023/01/03 08:13:39;;;;;;;36.78;19.95;;;5.50;99.90;;;;;;5020598;28;20513;-70
2023/01/03 08:16:09;;;;;;;44.63;21.48;;;5.50;99.90;;;;;;5031638;28;20079;-70
2023/01/03 08:18:34;;;;;;;37.45;20.65;;;5.60;99.90;;;;;;5063681;28;20035;-70
2023/01/03 08:21:00;;;;;;;40.13;20.88;;;5.60;99.90;;;;;;5032052;28;20108;-69
2023/01/03 08:23:49;;;;;;;43.08;20.77;;;5.70;99.90;;;;;;5023801;28;20069;-70
2023/01/03 08:26:22;;;;;;;35.95;18.60;;;5.80;99.90;;;;;;5029698;28;20152;-70
2023/01/03 08:28:47;;;;;;;36.75;18.17;;;5.80;99.90;;;;;;5029543;28;20453;-70
2023/01/03 08:31:20;;;;;;;33.55;16.90;;;5.80;99.90;;;;;;5030717;28;20170;-70
2023/01/03 08:33:58;;;;;;;39.63;18.48;;;5.90;99.90;;;;;;5028117;28;20537;-70
2023/01/03 08:36:41;;;;;;;34.90;18.58;;;5.90;99.90;;;;;;5029676;28;20029;-70
2023/01/03 08:39:28;;;;;;;33.03;15.68;;;6.00;99.90;;;;;;5031492;28;20034;-69
2023/01/03 08:42:02;;;;;;;33.63;17.13;;;6.10;99.90;;;;;;5028708;28;20022;-70
2023/01/03 08:44:27;;;;;;;31.25;16.98;;;6.20;99.90;;;;;;5031857;28;20037;-70
2023/01/03 08:47:01;;;;;;;31.23;15.15;;;6.10;99.90;;;;;;5031018;28;20025;-70
2023/01/03 08:49:28;;;;;;;31.30;15.82;;;6.10;99.90;;;;;;5031393;28;20054;-69
2023/01/03 08:52:03;;;;;;;31.85;14.93;;;6.20;99.90;;;;;;5033461;28;20064;-69
2023/01/03 08:54:28;;;;;;;31.95;14.90;;;6.20;99.90;;;;;;5030928;28;20034;-69
2023/01/03 08:56:59;;;;;;;30.58;12.90;;;6.30;99.90;;;;;;5031363;28;20014;-71
2023/01/03 08:59:24;;;;;;;19.33;9.77;;;6.30;99.90;;;;;;5031686;28;20076;-70
2023/01/03 09:02:03;;;;;;;23.27;12.25;;;6.40;99.90;;;;;;5030211;28;20542;-69
2023/01/03 09:04:39;;;;;;;34.15;16.67;;;6.40;99.90;;;;;;5028225;28;20026;-69
2023/01/03 09:07:26;;;;;;;33.28;17.33;;;6.40;99.90;;;;;;5016122;28;20120;-70
2023/01/03 09:10:47;;;;;;;27.02;13.50;;;6.50;99.90;;;;;;5033352;28;20109;-69
2023/01/03 09:13:24;;;;;;;31.63;14.35;;;6.50;99.90;;;;;;5028530;28;20060;-70
2023/01/03 09:16:04;;;;;;;26.60;12.77;;;6.50;99.90;;;;;;5026536;28;20056;-70
2023/01/03 09:22:07;;;;;;;29.05;15.63;;;6.60;99.90;;;;;;5027461;28;20052;-69
2023/01/03 09:24:45;;;;;;;32.10;16.48;;;6.80;99.90;;;;;;5031583;28;20032;-70
2023/01/03 09:27:18;;;;;;;34.05;17.65;;;6.80;99.90;;;;;;5031527;28;20069;-69
2023/01/03 09:29:44;;;;;;;35.47;16.80;;;6.90;99.90;;;;;;5031658;28;20025;-69
2023/01/03 09:32:17;;;;;;;31.70;16.10;;;6.90;99.90;;;;;;5030730;28;20029;-69
2023/01/03 09:34:43;;;;;;;42.45;19.08;;;7.00;99.90;;;;;;5032261;28;20025;-69
2023/01/03 09:37:08;;;;;;;40.13;19.73;;;7.00;99.90;;;;;;5034604;28;20090;-69
2023/01/03 09:39:39;;;;;;;36.45;18.55;;;7.10;99.90;;;;;;5034970;28;20049;-69
2023/01/03 09:45:46;;;;;;;39.03;19.67;;;7.20;99.90;;;;;;5033655;28;20898;-70
2023/01/03 09:48:16;;;;;;;38.00;18.92;;;7.30;99.90;;;;;;5033954;28;20068;-70
2023/01/03 09:50:46;;;;;;;31.70;15.90;;;7.40;99.90;;;;;;5031428;28;20037;-70
2023/01/03 10:06:24;;;;;;;29.45;13.70;;;7.60;99.90;;;;;;5030246;28;20037;-69
2023/01/03 10:09:05;;;;;;;36.05;15.75;;;7.60;99.90;;;;;;5033212;28;20483;-70
2023/01/03 10:11:58;;;;;;;33.72;15.80;;;7.70;99.90;;;;;;5033962;28;20025;-69
2023/01/03 10:14:42;;;;;;;;;;;7.70;99.90;;;;;;5030465;28;20033;-70
2023/01/03 10:17:45;;;;;;;41.03;17.58;;;7.70;99.90;;;;;;5033177;28;19909;-69
2023/01/03 10:20:22;;;;;;;39.83;17.92;;;7.70;99.90;;;;;;5069060;28;20033;-70
2023/01/03 10:22:48;;;;;;;34.63;16.88;;;7.70;99.90;;;;;;5034144;28;20032;-70
2023/01/03 10:25:20;;;;;;;36.08;15.70;;;7.80;99.90;;;;;;5033819;28;20033;-71
2023/01/03 10:28:18;;;;;;;39.13;19.20;;;7.80;99.90;;;;;;5030555;28;20029;-68
2023/01/03 10:31:41;;;;;;;35.38;19.05;;;7.80;99.90;;;;;;5030183;28;20089;-70
2023/01/03 10:34:16;;;;;;;38.60;18.75;;;7.90;99.90;;;;;;5012652;28;20044;-70
2023/01/03 10:36:42;;;;;;;41.13;21.67;;;8.00;99.90;;;;;;5028947;28;20475;-70
2023/01/03 10:39:22;;;;;;;41.20;20.63;;;8.10;99.90;;;;;;5032378;28;20028;-70
2023/01/03 10:41:51;;;;;;;39.88;19.58;;;8.20;99.90;;;;;;5032935;28;20183;-68
2023/01/03 10:44:38;;;;;;;41.80;20.25;;;8.20;99.90;;;;;;5033043;28;20040;-70
2023/01/03 10:50:27;;;;;;;35.58;17.10;;;8.30;99.90;;;;;;5021274;28;20036;-69
2023/01/03 10:53:06;;;;;;;41.53;17.50;;;8.30;99.90;;;;;;5034211;28;20022;-70
2023/01/03 10:56:04;;;;;;;41.13;20.85;;;8.30;99.90;;;;;;5033157;28;20027;-70
2023/01/03 10:58:46;;;;;;;38.08;19.00;;;8.40;99.90;;;;;;5017018;28;20022;-69
2023/01/03 11:01:55;;;;;;;32.88;17.15;;;8.40;99.90;;;;;;5031073;28;20060;-70
2023/01/03 11:04:23;;;;;;;40.22;19.42;;;8.40;99.90;;;;;;5016647;28;20037;-70
2023/01/03 11:07:07;;;;;;;36.13;17.98;;;8.50;99.90;;;;;;5031020;28;20041;-69
2023/01/03 11:09:55;;;;;;;35.85;17.58;;;8.50;99.90;;;;;;5028425;28;20116;-70
2023/01/03 11:12:41;;;;;;;38.22;20.20;;;8.50;99.90;;;;;;5028200;28;20386;-70
2023/01/03 11:15:18;;;;;;;37.00;17.52;;;8.60;99.90;;;;;;5030681;28;20360;-70
2023/01/03 11:18:19;;;;;;;33.45;16.27;;;8.60;99.90;;;;;;5019859;28;20027;-69
2023/01/03 11:21:27;;;;;;;38.92;21.10;;;8.60;99.90;;;;;;5060383;28;20442;-71
2023/01/03 11:24:34;;;;;;;34.00;16.27;;;8.70;99.90;;;;;;5025863;28;20037;-69
2023/01/03 11:27:41;;;;;;;45.30;18.48;;;8.70;99.90;;;;;;5029004;28;20080;-70
2023/01/03 11:30:39;;;;;;;40.17;18.13;;;8.70;99.90;;;;;;5032817;28;20017;-68
2023/01/03 11:33:42;;;;;;;25.27;12.60;;;8.70;99.90;;;;;;5035626;28;20051;-70
2023/01/03 11:36:38;;;;;;;38.42;16.77;;;8.80;99.90;;;;;;5054594;28;20033;-70
2023/01/03 11:39:47;;;;;;;37.50;18.27;;;8.90;99.90;;;;;;5029309;28;20741;-70
2023/01/03 11:42:44;;;;;;;32.15;15.63;;;8.90;99.90;;;;;;5029162;28;20025;-70
2023/01/03 11:45:38;;;;;;;38.13;19.15;;;9.00;99.90;;;;;;5028799;28;20017;-70
2023/01/03 11:48:27;;;;;;;33.73;18.97;;;9.00;99.90;;;;;;5027740;28;20040;-70
2023/01/03 11:50:56;;;;;;;31.65;14.02;;;9.10;99.90;;;;;;5028471;28;20045;-70
2023/01/03 11:53:43;;;;;;;28.45;15.30;;;9.10;99.90;;;;;;5026447;28;20089;-70
2023/01/03 11:57:01;;;;;;;31.15;15.07;;;9.00;99.90;;;;;;5027742;28;20200;-68
2023/01/03 11:59:58;;;;;;;28.40;13.85;;;9.10;99.90;;;;;;5046760;28;20067;-69
2023/01/03 12:02:57;;;;;;;38.63;18.85;;;9.00;99.90;;;;;;5019391;28;20533;-68
2023/01/03 12:05:40;;;;;;;30.65;12.70;;;9.10;99.90;;;;;;5025520;28;20545;-70
2023/01/03 12:08:44;;;;;;;36.33;17.23;;;9.10;99.90;;;;;;5034196;28;20083;-69
2023/01/03 12:11:48;;;;;;;32.35;15.88;;;9.20;99.90;;;;;;5017811;28;20029;-69
2023/01/03 12:14:40;;;;;;;22.83;12.90;;;9.30;99.90;;;;;;5025712;28;20055;-69
2023/01/03 12:17:43;;;;;;;27.63;15.02;;;9.30;99.90;;;;;;5030825;28;20029;-68
2023/01/03 12:20:17;;;;;;;25.60;11.85;;;9.30;99.90;;;;;;5036956;28;20060;-68
2023/01/03 12:23:26;;;;;;;27.15;13.75;;;9.30;99.90;;;;;;5019657;28;20026;-69
2023/01/03 12:26:26;;;;;;;28.60;13.90;;;9.30;99.90;;;;;;5022626;28;20025;-70
2023/01/03 12:29:23;;;;;;;29.73;13.57;;;9.40;99.90;;;;;;5024228;28;20033;-71
2023/01/03 12:32:15;;;;;;;31.05;13.88;;;9.50;99.90;;;;;;5027902;28;20025;-70
2023/01/03 12:35:13;;;;;;;25.30;12.13;;;9.50;99.90;;;;;;5026537;28;20044;-69
2023/01/03 12:37:51;;;;;;;25.55;14.13;;;9.50;99.90;;;;;;5028417;28;20026;-68
2023/01/03 12:40:48;;;;;;;26.13;13.45;;;9.50;99.90;;;;;;5030806;28;20022;-69
2023/01/03 12:43:41;;;;;;;23.48;10.70;;;9.50;99.90;;;;;;5019268;28;21070;-70
2023/01/03 12:46:22;;;;;;;26.08;11.63;;;9.50;99.90;;;;;;5027237;28;20026;-69
2023/01/03 12:48:58;;;;;;;28.05;13.60;;;9.60;99.90;;;;;;5020323;28;20025;-69
2023/01/03 12:51:24;;;;;;;23.20;12.90;;;9.60;99.90;;;;;;5025176;28;20036;-70
2023/01/03 12:54:04;;;;;;;19.70;8.77;;;9.60;99.90;;;;;;5027434;28;20026;-70
2023/01/03 12:57:03;;;;;;;22.65;11.75;;;9.60;99.90;;;;;;5028804;28;20038;-69
2023/01/03 13:00:00;;;;;;;21.42;11.80;;;9.70;99.90;;;;;;5028792;28;20491;-70
2023/01/03 13:02:51;;;;;;;24.67;11.65;;;9.70;99.90;;;;;;5023042;28;20069;-70
2023/01/03 13:05:26;;;;;;;20.27;9.45;;;9.80;99.90;;;;;;5029822;28;20060;-69
2023/01/03 13:08:19;;;;;;;20.60;10.13;;;9.80;99.90;;;;;;5030559;28;20053;-70
2023/01/03 13:11:19;;;;;;;20.73;10.63;;;9.90;99.90;;;;;;5029344;28;20022;-69
2023/01/03 13:13:59;;;;;;;19.08;8.23;;;9.90;99.90;;;;;;5024405;28;20018;-69
2023/01/03 13:16:45;;;;;;;23.98;10.40;;;10.00;99.90;;;;;;5033939;28;20103;-69
2023/01/03 13:19:23;;;;;;;23.13;9.63;;;10.10;99.90;;;;;;5026144;28;20132;-70
2023/01/03 13:22:03;;;;;;;18.80;8.57;;;10.20;99.90;;;;;;5034455;28;20029;-70
2023/01/03 13:24:46;;;;;;;24.02;9.63;;;10.30;99.90;;;;;;5034860;28;20083;-70
2023/01/03 13:27:37;;;;;;;20.65;9.18;;;10.40;99.90;;;;;;5032289;28;20037;-71
2023/01/03 13:30:20;;;;;;;19.97;9.07;;;10.50;99.90;;;;;;5029181;28;20055;-68
2023/01/03 13:33:16;;;;;;;;;;;10.50;99.90;;;;;;5023959;28;20483;-70
2023/01/03 13:35:41;;;;;;;25.40;11.82;;;10.50;99.90;;;;;;5034856;28;19980;-69
2023/01/03 13:38:22;;;;;;;14.15;6.80;;;10.50;99.90;;;;;;5034655;28;20068;-69
2023/01/03 13:40:48;;;;;;;15.38;7.38;;;10.50;99.90;;;;;;5033046;28;20124;-69
2023/01/03 13:43:40;;;;;;;20.05;8.43;;;10.40;99.90;;;;;;5034520;28;20113;-69
2023/01/03 13:46:27;;;;;;;16.67;7.50;;;10.30;99.90;;;;;;5035049;28;20026;-69
2023/01/03 13:49:03;;;;;;;17.10;7.85;;;10.20;99.90;;;;;;5033942;28;20033;-70
2023/01/03 13:52:04;;;;;;;16.73;6.97;;;10.20;99.90;;;;;;5032895;28;20044;-70
2023/01/03 13:54:57;;;;;;;15.23;6.50;;;10.10;99.90;;;;;;5032712;28;20040;-69
2023/01/03 13:57:36;;;;;;;15.27;6.50;;;10.00;99.90;;;;;;5029859;28;20045;-69
2023/01/03 14:00:23;;;;;;;17.40;7.40;;;10.00;99.90;;;;;;5029969;28;20802;-71
2023/01/03 14:03:23;;;;;;;16.23;7.20;;;9.90;99.90;;;;;;5029310;28;20056;-69
2023/01/03 14:05:49;;;;;;;14.73;6.60;;;9.80;99.90;;;;;;5034329;28;20083;-70
2023/01/03 14:08:52;;;;;;;20.63;7.78;;;9.90;99.90;;;;;;5026118;28;20026;-71
2023/01/03 14:12:02;;;;;;;14.57;6.10;;;9.90;99.90;;;;;;5032118;28;20029;-70
2023/01/03 14:14:32;;;;;;;12.07;5.88;;;9.80;99.90;;;;;;5028998;28;20053;-69
2023/01/03 14:16:58;;;;;;;14.27;6.82;;;9.80;99.90;;;;;;5033968;28;20501;-71
2023/01/03 14:19:39;;;;;;;15.07;6.85;;;9.80;99.90;;;;;;5034209;28;20493;-70
2023/01/03 14:22:27;;;;;;;22.35;7.97;;;9.80;99.90;;;;;;5033790;28;20075;-68
2023/01/03 14:24:57;;;;;;;14.30;6.65;;;9.80;99.90;;;;;;5034478;28;20040;-70
2023/01/03 14:27:39;;;;;;;17.67;5.20;;;9.80;99.90;;;;;;5033845;28;20083;-70
2023/01/03 14:30:20;;;;;;;16.35;7.13;;;9.80;99.90;;;;;;5029247;28;20021;-69
2023/01/03 14:32:46;;;;;;;13.73;5.77;;;9.80;99.90;;;;;;5031229;28;20029;-69
2023/01/03 14:35:40;;;;;;;14.38;6.85;;;9.70;99.90;;;;;;5029530;28;20775;-69